Time,TemperatureF,DewpointF,PressureIn,WindDirection,WindDirectionDegrees,WindSpeedMPH,WindSpeedGustMPH,Humidity,HourlyPrecipIn,Conditions,Clouds,dailyrainin,SoftwareType,DateUTC
2013-01-16 00:15:00,30.6,30.1,29.96,NNE,22,2.7,-999.0,98,-99.99,,,0.00,Acu-Link.com,2013-01-16 05:15:00,
2013-01-16 00:30:00,30.6,30.1,29.96,SSE,157,0.0,-999.0,98,-99.99,,,0.00,Acu-Link.com,2013-01-16 05:30:00,
2013-01-16 01:01:00,30.2,29.7,29.95,NNE,22,0.0,-999.0,98,-99.99,,,0.00,Acu-Link.com,2013-01-16 06:01:00,
2013-01-16 01:16:00,30.2,29.7,29.96,WNW,292,0.0,-999.0,98,-99.99,,,0.00,Acu-Link.com,2013-01-16 06:16:00,
2013-01-16 01:32:00,30.2,29.7,29.95,ESE,112,0.0,-999.0,98,-99.99,,,0.00,Acu-Link.com,2013-01-16 06:32:00,
2013-01-16 01:47:00,30.2,29.7,29.94,South,180,0.0,-999.0,98,-99.99,,,0.00,Acu-Link.com,2013-01-16 06:47:00,
2013-01-16 02:02:00,30.2,29.7,29.94,South,180,0.0,-999.0,98,-99.99,,,0.00,Acu-Link.com,2013-01-16 07:02:00,
2013-01-16 02:18:00,30.2,29.7,29.93,South,180,0.0,-999.0,98,-99.99,,,0.00,Acu-Link.com,2013-01-16 07:18:00,
2013-01-16 02:33:00,30.2,29.7,29.95,SSE,157,0.0,-999.0,98,-99.99,,,0.00,Acu-Link.com,2013-01-16 07:33:00,
2013-01-16 02:49:00,30.2,29.7,29.94,ESE,112,0.0,-999.0,98,-99.99,,,0.00,Acu-Link.com,2013-01-16 07:49:00,
2013-01-16 03:04:00,30.2,29.7,29.92,SW,225,0.0,-999.0,98,-99.99,,,0.00,Acu-Link.com,2013-01-16 08:04:00,
2013-01-16 03:20:00,30.2,29.7,29.93,North,0,0.0,-999.0,98,-99.99,,,0.00,Acu-Link.com,2013-01-16 08:20:00,
2013-01-16 03:35:00,30.2,29.7,29.93,SW,225,0.0,-999.0,98,-99.99,,,0.00,Acu-Link.com,2013-01-16 08:35:00,
2013-01-16 03:51:00,30.2,29.7,29.92,ESE,112,0.0,-999.0,98,-99.99,,,0.00,Acu-Link.com,2013-01-16 08:51:00,
2013-01-16 04:22:00,30.2,29.7,29.90,ESE,112,0.0,-999.0,98,-99.99,,,0.00,Acu-Link.com,2013-01-16 09:22:00,
2013-01-16 04:37:00,30.2,29.7,29.90,SSW,202,0.0,-999.0,98,-99.99,,,0.00,Acu-Link.com,2013-01-16 09:37:00,
2013-01-16 04:53:00,30.2,29.7,29.91,West,270,0.0,-999.0,98,-99.99,,,0.00,Acu-Link.com,2013-01-16 09:53:00,
2013-01-16 05:09:00,30.2,29.7,29.90,SSE,157,0.0,-999.0,98,-99.99,,,0.00,Acu-Link.com,2013-01-16 10:09:00,
2013-01-16 05:24:00,30.4,29.9,29.89,SSW,202,0.0,-999.0,98,-99.99,,,0.00,Acu-Link.com,2013-01-16 10:24:00,
2013-01-16 05:40:00,30.9,30.4,29.87,ESE,112,0.0,-999.0,98,-99.99,,,0.00,Acu-Link.com,2013-01-16 10:40:00,
2013-01-16 05:55:00,30.9,30.4,29.86,WNW,292,0.0,-999.0,98,-99.99,,,0.00,Acu-Link.com,2013-01-16 10:55:00,
2013-01-16 06:11:00,30.7,30.2,29.86,ENE,67,0.0,-999.0,98,-99.99,,,0.00,Acu-Link.com,2013-01-16 11:11:00,
2013-01-16 06:26:00,30.7,30.2,29.85,SSW,202,0.0,-999.0,98,-99.99,,,0.00,Acu-Link.com,2013-01-16 11:26:00,
2013-01-16 06:42:00,30.7,30.2,29.85,West,270,0.0,-999.0,98,-99.99,,,0.00,Acu-Link.com,2013-01-16 11:42:00,
2013-01-16 06:57:00,30.7,30.2,29.84,ESE,112,0.0,-999.0,98,-99.99,,,0.00,Acu-Link.com,2013-01-16 11:57:00,
2013-01-16 07:13:00,30.7,30.2,29.83,SW,225,0.0,-999.0,98,-99.99,,,0.00,Acu-Link.com,2013-01-16 12:13:00,
2013-01-16 07:28:00,30.7,30.2,29.85,WSW,247,2.7,-999.0,98,-99.99,,,0.00,Acu-Link.com,2013-01-16 12:28:00,
2013-01-16 07:43:00,31.1,30.6,29.82,ENE,67,0.0,-999.0,98,-99.99,,,0.00,Acu-Link.com,2013-01-16 12:43:00,
2013-01-16 07:59:00,31.3,30.8,29.84,ESE,112,0.0,-999.0,98,-99.99,,,0.00,Acu-Link.com,2013-01-16 12:59:00,
2013-01-16 08:14:00,31.5,31.0,29.84,West,270,0.0,-999.0,98,-99.99,,,0.00,Acu-Link.com,2013-01-16 13:14:00,
2013-01-16 08:30:00,31.6,31.1,29.82,SE,135,0.0,-999.0,98,-99.99,,,0.00,Acu-Link.com,2013-01-16 13:30:00,
2013-01-16 08:46:00,32.2,31.7,29.81,East,90,0.0,-999.0,98,-99.99,,,0.00,Acu-Link.com,2013-01-16 13:46:00,
2013-01-16 09:01:00,32.5,32.0,29.79,WNW,292,0.0,-999.0,98,-99.99,,,0.00,Acu-Link.com,2013-01-16 14:01:00,
2013-01-16 09:17:00,32.7,32.2,29.86,WNW,292,0.0,-999.0,98,-99.99,,,0.00,Acu-Link.com,2013-01-16 14:17:00,
2013-01-16 09:32:00,32.7,32.2,29.79,ESE,112,0.0,-999.0,98,-99.99,,,0.00,Acu-Link.com,2013-01-16 14:32:00,
2013-01-16 09:47:00,32.9,32.4,29.82,SSE,157,2.2,-999.0,98,-99.99,,,0.00,Acu-Link.com,2013-01-16 14:47:00,
2013-01-16 10:03:00,32.9,32.4,29.81,ESE,112,2.2,-999.0,98,-99.99,,,0.00,Acu-Link.com,2013-01-16 15:03:00,
2013-01-16 10:18:00,33.3,32.8,29.78,ESE,112,2.7,-999.0,98,-99.99,,,0.00,Acu-Link.com,2013-01-16 15:18:00,
2013-01-16 10:33:00,33.3,32.8,29.78,SSE,157,0.0,-999.0,98,-99.99,,,0.00,Acu-Link.com,2013-01-16 15:33:00,
2013-01-16 10:49:00,33.4,32.9,29.78,SW,225,0.0,-999.0,98,-99.99,,,0.00,Acu-Link.com,2013-01-16 15:49:00,
2013-01-16 11:05:00,34.0,33.5,29.75,ESE,112,0.0,-999.0,98,-99.99,,,0.00,Acu-Link.com,2013-01-16 16:05:00,
2013-01-16 11:20:00,34.5,34.0,29.75,WSW,247,0.0,-999.0,98,-99.99,,,0.00,Acu-Link.com,2013-01-16 16:20:00,
2013-01-16 11:35:00,34.7,34.2,29.74,SW,225,0.0,-999.0,98,-99.99,,,0.00,Acu-Link.com,2013-01-16 16:35:00,
2013-01-16 11:51:00,34.3,33.8,29.75,WSW,247,0.0,-999.0,98,-99.99,,,0.00,Acu-Link.com,2013-01-16 16:51:00,
2013-01-16 12:06:00,33.6,33.1,29.76,SW,225,3.7,-999.0,98,-99.99,,,0.00,Acu-Link.com,2013-01-16 17:06:00,
2013-01-16 12:22:00,34.0,33.5,29.74,WNW,292,0.0,-999.0,98,-99.99,,,0.00,Acu-Link.com,2013-01-16 17:22:00,
2013-01-16 12:37:00,34.0,33.5,29.74,WSW,247,0.0,-999.0,98,-99.99,,,0.00,Acu-Link.com,2013-01-16 17:37:00,
2013-01-16 12:53:00,34.9,34.4,29.75,SSW,202,0.0,-999.0,98,-99.99,,,0.00,Acu-Link.com,2013-01-16 17:53:00,
2013-01-16 13:08:00,35.4,34.9,29.75,West,270,0.0,-999.0,98,-99.99,,,0.00,Acu-Link.com,2013-01-16 18:08:00,
2013-01-16 13:24:00,36.1,35.6,29.74,WNW,292,0.0,-999.0,98,-99.99,,,0.00,Acu-Link.com,2013-01-16 18:24:00,
2013-01-16 13:39:00,36.0,35.5,29.76,NW,315,2.2,-999.0,98,-99.99,,,0.00,Acu-Link.com,2013-01-16 18:39:00,
2013-01-16 13:55:00,35.4,34.9,29.75,ESE,112,0.0,-999.0,98,-99.99,,,0.01,Acu-Link.com,2013-01-16 18:55:00,
2013-01-16 14:11:00,36.0,35.5,29.75,East,90,0.0,-999.0,98,-99.99,,,0.03,Acu-Link.com,2013-01-16 19:11:00,
2013-01-16 14:26:00,35.8,35.3,29.76,NNE,22,0.0,-999.0,98,-99.99,,,0.04,Acu-Link.com,2013-01-16 19:26:00,
2013-01-16 14:42:00,36.3,35.8,29.76,NNW,337,0.0,-999.0,98,-99.99,,,0.06,Acu-Link.com,2013-01-16 19:42:00,
2013-01-16 14:57:00,36.3,35.8,29.77,WNW,292,0.0,-999.0,98,-99.99,,,0.08,Acu-Link.com,2013-01-16 19:57:00,
2013-01-16 15:13:00,35.8,35.3,29.76,WNW,292,0.0,-999.0,98,-99.99,,,0.09,Acu-Link.com,2013-01-16 20:13:00,
2013-01-16 15:28:00,35.4,34.9,29.77,SW,225,6.3,-999.0,98,-99.99,,,0.13,Acu-Link.com,2013-01-16 20:28:00,
2013-01-16 15:43:00,35.6,35.1,29.78,West,270,3.2,-999.0,98,-99.99,,,0.16,Acu-Link.com,2013-01-16 20:43:00,
2013-01-16 15:59:00,35.4,34.9,29.79,West,270,5.8,-999.0,98,-99.99,,,0.19,Acu-Link.com,2013-01-16 20:59:00,
2013-01-16 16:14:00,35.4,34.9,29.80,West,270,1.1,-999.0,98,-99.99,,,0.22,Acu-Link.com,2013-01-16 21:14:00,
2013-01-16 16:30:00,35.6,35.1,29.81,NNW,337,5.8,-999.0,98,-99.99,,,0.27,Acu-Link.com,2013-01-16 21:30:00,
2013-01-16 16:46:00,35.4,34.9,29.80,WNW,292,6.8,-999.0,98,-99.99,,,0.28,Acu-Link.com,2013-01-16 21:46:00,
2013-01-16 17:01:00,35.4,34.9,29.81,WSW,247,2.7,-999.0,98,-99.99,,,0.29,Acu-Link.com,2013-01-16 22:01:00,
2013-01-16 17:17:00,35.4,34.9,29.81,NW,315,7.3,-999.0,98,-99.99,,,0.29,Acu-Link.com,2013-01-16 22:17:00,
2013-01-16 17:32:00,35.8,35.3,29.82,WNW,292,7.8,-999.0,98,-99.99,,,0.31,Acu-Link.com,2013-01-16 22:32:00,
2013-01-16 17:47:00,35.6,35.1,29.82,SW,225,11.4,-999.0,98,-99.99,,,0.33,Acu-Link.com,2013-01-16 22:47:00,
2013-01-16 18:03:00,35.2,34.7,29.83,WSW,247,1.7,-999.0,98,-99.99,,,0.34,Acu-Link.com,2013-01-16 23:03:00,
2013-01-16 18:18:00,35.2,34.7,29.83,WSW,247,13.5,-999.0,98,-99.99,,,0.34,Acu-Link.com,2013-01-16 23:18:00,
2013-01-16 18:33:00,35.2,34.7,29.85,East,90,0.0,-999.0,98,-99.99,,,0.35,Acu-Link.com,2013-01-16 23:33:00,
2013-01-16 18:49:00,35.1,34.6,29.84,West,270,4.7,-999.0,98,-99.99,,,0.35,Acu-Link.com,2013-01-16 23:49:00,
2013-01-16 19:05:00,34.9,34.4,29.85,SW,225,0.0,-999.0,98,-99.99,,,0.35,Acu-Link.com,2013-01-17 00:05:00,
2013-01-16 19:20:00,34.7,34.2,29.85,ESE,112,8.3,-999.0,98,-99.99,,,0.36,Acu-Link.com,2013-01-17 00:20:00,
2013-01-16 19:35:00,34.7,34.2,29.85,SSE,157,3.2,-999.0,98,-99.99,,,0.36,Acu-Link.com,2013-01-17 00:35:00,
2013-01-16 19:50:00,34.5,34.0,29.84,NNE,22,0.0,-999.0,98,-99.99,,,0.36,Acu-Link.com,2013-01-17 00:50:00,
2013-01-16 20:06:00,34.3,33.8,29.85,NNE,22,0.0,-999.0,98,-99.99,,,0.36,Acu-Link.com,2013-01-17 01:06:00,
2013-01-16 20:22:00,34.2,33.7,29.83,ESE,112,4.7,-999.0,98,-99.99,,,0.36,Acu-Link.com,2013-01-17 01:22:00,
2013-01-16 20:37:00,34.2,33.7,29.83,West,270,1.1,-999.0,98,-99.99,,,0.36,Acu-Link.com,2013-01-17 01:37:00,
2013-01-16 20:53:00,34.2,33.7,29.82,NW,315,6.8,-999.0,98,-99.99,,,0.36,Acu-Link.com,2013-01-17 01:53:00,
2013-01-16 21:08:00,34.2,33.7,29.83,SSW,202,3.2,-999.0,98,-99.99,,,0.36,Acu-Link.com,2013-01-17 02:08:00,
2013-01-16 21:23:00,34.2,33.7,29.83,SE,135,5.8,-999.0,98,-99.99,,,0.36,Acu-Link.com,2013-01-17 02:23:00,
2013-01-16 21:39:00,34.2,33.7,29.83,NNE,22,0.0,-999.0,98,-99.99,,,0.36,Acu-Link.com,2013-01-17 02:39:00,
2013-01-16 21:54:00,33.8,33.3,29.84,SSE,157,2.7,-999.0,98,-99.99,,,0.36,Acu-Link.com,2013-01-17 02:54:00,
2013-01-16 22:10:00,33.8,33.3,29.84,SSW,202,4.7,-999.0,98,-99.99,,,0.36,Acu-Link.com,2013-01-17 03:10:00,
2013-01-16 22:25:00,33.8,33.3,29.84,ESE,112,0.0,-999.0,98,-99.99,,,0.36,Acu-Link.com,2013-01-17 03:25:00,
2013-01-16 22:41:00,33.4,32.9,29.84,North,0,5.8,-999.0,98,-99.99,,,0.37,Acu-Link.com,2013-01-17 03:41:00,
2013-01-16 22:56:00,33.4,32.9,29.84,WNW,292,3.7,-999.0,98,-99.99,,,0.37,Acu-Link.com,2013-01-17 03:56:00,
2013-01-16 23:12:00,33.6,33.1,29.84,ESE,112,0.0,-999.0,98,-99.99,,,0.37,Acu-Link.com,2013-01-17 04:12:00,
2013-01-16 23:27:00,33.6,33.1,29.84,ESE,112,0.0,-999.0,98,-99.99,,,0.37,Acu-Link.com,2013-01-17 04:27:00,
2013-01-16 23:43:00,33.6,33.1,29.84,SSW,202,2.7,-999.0,98,-99.99,,,0.37,Acu-Link.com,2013-01-17 04:43:00,
2013-01-16 23:59:00,33.3,32.8,29.84,ESE,112,0.0,-999.0,98,-99.99,,,0.37,Acu-Link.com,2013-01-17 04:59:00,